Stonington, Connecticut
Current Conditions -  °F | °C
As of 9:53 PM on Wednesday 26 Nov 2014 (Local Time) from KWST Reporting Station
Light Rain Light Rain  
Wind Chill: 26°   Ceiling: 1400
Heat Index: 36°   Visibility: 6mi
Dew Point: 33°   Wind: 17mph
Humidity: 89%   Direction: 350°N
Pressure: 29.63"   Gusts: 26mph
Location:  41.34°N, 71.91°W
Report Text: KWST 270253Z AUTO 35015G23KT 6SM -RA BR BKN014 OVC023 02/01 A2963 RMK AO2 PK WND 01026/0243 RAE20B49UPB46E49SNB20E46 SLP034 P0000 60002 I1000 I3000 T00220006 50001
Loading
Personal Weather Stations






























Interactive Weather Map New forecast layout! Learn more

10-Day Weather Forecast

Advertisements
Track Severe Weather on mobile